Time;durP1;ratioP1;P1;durP2;ratioP2;P2;SDS_P1;SDS_P2;PMS_P1;PMS_P2;Temp;Humidity;BMP_temperature;BMP_pressure;BME280_temperature;BME280_humidity;BME280_pressure;Samples;Min_cycle;Max_cycle;Signal;HPM_P1;HPM_P2
2022/11/05 00:10:48;;;;;;;;;;;;;;;11.46;75.24;97990.16;7393721;19;19918;-77
2022/11/05 00:19:05;;;;;;;;;;;;;;;11.31;75.17;97993.50;7391395;19;19944;-79
2022/11/05 00:27:03;;;;;;;;;;;;;;;11.35;75.42;97997.47;7386296;19;19914;-78
2022/11/05 00:29:29;;;;;;;;;;;;;;;11.37;75.29;98007.88;7394404;19;19919;-78
2022/11/05 00:31:56;;;;;;;;;;;;;;;11.28;75.43;98012.38;7391478;19;19923;-78
2022/11/05 00:34:23;;;;;;;;;;;;;;;11.23;75.55;98012.03;7390396;19;20018;-78
2022/11/05 00:36:49;;;;;;;;;;;;;;;11.28;75.37;98011.56;7392702;19;19974;-78
2022/11/05 00:39:16;;;;;;;;;;;;;;;11.18;75.69;98022.31;7390446;19;19948;-79
2022/11/05 00:41:42;;;;;;;;;;;;;;;11.21;75.76;98017.50;7388514;19;19930;-78
2022/11/05 00:49:28;;;;;;;;;;;;;;;11.22;75.57;98021.00;7392063;19;19943;-78
2022/11/05 00:49:40;;;;;;;;;;;;;;;11.19;75.43;98029.28;7390670;19;20738;-79
2022/11/05 00:54:52;;;;;;;;;;;;;;;11.05;75.37;98028.13;7386708;19;19918;-79
2022/11/05 00:57:19;;;;;;;;;;;;;;;10.99;75.36;98026.97;7389773;19;19966;-79
2022/11/05 00:59:45;;;;;;;;;;;;;;;11.08;75.07;98034.91;7392611;19;19919;-78
2022/11/05 01:02:12;;;;;;;;;;;;;;;11.01;75.23;98039.22;7392423;19;20706;-79
2022/11/05 01:04:38;;;;;;;;;;;;;;;11.01;75.29;98039.22;7391365;19;19943;-79
2022/11/05 01:07:05;;;;;;;;;;;;;;;11.07;75.05;98033.25;7390364;19;20268;-79
2022/11/05 01:09:32;;;;;;;;;;;;;;;11.09;75.05;98042.69;7388697;19;19948;-79
2022/11/05 01:11:58;;;;;;;;;;;;;;;11.16;74.88;98048.97;7392286;19;19927;-78
2022/11/05 01:14:25;;;;;;;;;;;;;;;11.15;74.94;98052.59;7391186;19;19929;-78
2022/11/05 01:16:53;;;;;;;;;;;;;;;11.02;74.94;98051.47;7391985;19;19929;-78
2022/11/05 01:19:20;;;;;;;;;;;;;;;11.01;74.88;98052.47;7391281;19;19940;-78
2022/11/05 01:21:46;;;;;;;;;;;;;;;11.15;74.78;98046.47;7387589;19;19918;-79
2022/11/05 01:24:13;;;;;;;;;;;;;;;11.13;74.96;98048.47;7385383;19;19931;-79
2022/11/05 01:26:42;;;;;;;;;;;;;;;11.09;74.70;98055.09;7389809;19;19915;-78
2022/11/05 01:29:10;;;;;;;;;;;;;;;11.15;74.60;98059.72;7392005;19;19927;-78
2022/11/05 01:31:36;;;;;;;;;;;;;;;11.19;74.89;98064.53;7392418;19;19918;-80
2022/11/05 01:34:03;;;;;;;;;;;;;;;11.20;74.70;98062.69;7388429;19;19930;-79
2022/11/05 01:36:30;;;;;;;;;;;;;;;11.22;74.56;98066.00;7390417;19;19914;-79
2022/11/05 01:38:56;;;;;;;;;;;;;;;11.18;74.59;98062.84;7391670;19;19929;-78
2022/11/05 01:41:23;;;;;;;;;;;;;;;11.21;74.71;98077.56;7386646;19;19937;-79
2022/11/05 01:43:51;;;;;;;;;;;;;;;11.15;74.54;98070.31;7392754;19;20288;-79
2022/11/05 01:46:18;;;;;;;;;;;;;;;11.13;74.56;98073.13;7395860;19;19910;-78
2022/11/05 01:48:45;;;;;;;;;;;;;;;11.07;74.98;98067.66;7391682;19;19921;-78
2022/11/05 01:51:12;;;;;;;;;;;;;;;11.13;74.93;98070.47;7391961;19;19926;-78
2022/11/05 01:53:43;;;;;;;;;;;;;;;11.04;75.36;98070.66;7392490;19;19914;-79
2022/11/05 01:56:21;;;;;;;;;;;;;;;11.23;75.29;98067.66;7390290;19;19914;-79
2022/11/05 01:59:07;;;;;;;;;;;;;;;11.29;74.99;98077.56;7388821;19;20579;-77
2022/11/05 02:01:34;;;;;;;;;;;;;;;11.35;74.56;98087.50;7394632;19;20414;-78
2022/11/05 02:04:02;;;;;;;;;;;;;;;11.31;74.63;98080.88;7392134;19;20248;-79
2022/11/05 02:06:29;;;;;;;;;;;;;;;11.29;74.58;98080.22;7391641;19;19933;-79
2022/11/05 02:08:57;;;;;;;;;;;;;;;11.36;75.02;98088.34;7392188;19;19960;-79
2022/11/05 02:11:24;;;;;;;;;;;;;;;11.38;74.75;98087.16;7391834;19;19914;-78
2022/11/05 02:13:50;;;;;;;;;;;;;;;11.34;74.90;98077.91;7385261;19;19915;-78
2022/11/05 02:16:17;;;;;;;;;;;;;;;11.41;74.74;98081.53;7391409;19;19919;-78
2022/11/05 02:18:50;;;;;;;;;;;;;;;11.46;74.68;98080.22;7390702;19;19957;-77
2022/11/05 02:21:17;;;;;;;;;;;;;;;11.38;74.72;98075.75;7390556;19;19919;-78
2022/11/05 02:23:47;;;;;;;;;;;;;;;11.34;74.53;98079.72;7392069;19;19919;-77
2022/11/05 02:26:32;;;;;;;;;;;;;;;11.34;74.64;98085.84;7388289;19;20577;-78
2022/11/05 02:29:17;;;;;;;;;;;;;;;11.39;74.66;98083.50;7390187;19;19919;-78
2022/11/05 02:31:49;;;;;;;;;;;;;;;11.43;74.35;98091.97;7384570;19;19925;-79
2022/11/05 02:34:24;;;;;;;;;;;;;;;11.47;74.19;98090.63;7388179;19;19914;-79
2022/11/05 02:37:11;;;;;;;;;;;;;;;11.37;74.08;98098.78;7397252;19;19919;-79
2022/11/05 02:40:10;;;;;;;;;;;;;;;11.33;74.28;98093.97;7397401;19;20410;-79
2022/11/05 02:42:57;;;;;;;;;;;;;;;11.28;74.42;98097.13;7396100;19;19911;-78
2022/11/05 02:45:26;;;;;;;;;;;;;;;11.28;74.85;98097.13;7399048;19;19947;-78
2022/11/05 02:47:57;;;;;;;;;;;;;;;11.31;74.53;98101.25;7395660;19;19923;-78
2022/11/05 02:50:36;;;;;;;;;;;;;;;11.41;74.16;98102.72;7397162;19;20276;-78
2022/11/05 02:53:09;;;;;;;;;;;;;;;11.29;74.82;98100.56;7397465;19;20298;-79
2022/11/05 02:55:58;;;;;;;;;;;;;;;11.20;74.82;98103.22;7398497;19;19925;-78
2022/11/05 02:58:27;;;;;;;;;;;;;;;11.33;74.40;98099.25;7397849;19;19911;-77
2022/11/05 03:00:54;;;;;;;;;;;;;;;11.29;74.47;98104.06;7403676;19;19936;-78
2022/11/05 03:03:24;;;;;;;;;;;;;;;11.17;74.92;98103.56;7399191;19;19923;-79
2022/11/05 03:06:00;;;;;;;;;;;;;;;11.27;74.69;98098.13;7397470;19;19922;-79
2022/11/05 03:08:30;;;;;;;;;;;;;;;11.27;75.04;98102.56;7397665;19;19914;-79
2022/11/05 03:10:57;;;;;;;;;;;;;;;11.23;75.26;98099.44;7397992;19;19923;-79
2022/11/05 03:13:27;;;;;;;;;;;;;;;11.20;74.93;98110.34;7393833;19;19943;-79
2022/11/05 03:15:55;;;;;;;;;;;;;;;11.29;74.84;98106.69;7395815;19;19927;-79
2022/11/05 03:18:37;;;;;;;;;;;;;;;11.19;74.98;98106.88;7394074;19;19919;-79
2022/11/05 03:21:16;;;;;;;;;;;;;;;11.34;74.93;98107.03;7391225;19;19926;-79
2022/11/05 03:23:45;;;;;;;;;;;;;;;11.36;74.93;98114.81;7394604;19;19978;-79
2022/11/05 03:26:19;;;;;;;;;;;;;;;11.27;74.96;98126.41;7397166;19;19919;-79
2022/11/05 03:28:47;;;;;;;;;;;;;;;11.28;75.12;98123.59;7396265;19;19918;-78
2022/11/05 03:31:13;;;;;;;;;;;;;;;11.17;75.66;98121.28;7397773;19;19948;-77
2022/11/05 03:33:40;;;;;;;;;;;;;;;11.09;75.99;98123.94;7395154;19;19943;-78
2022/11/05 03:36:10;;;;;;;;;;;;;;;11.18;75.80;98125.56;7394936;19;19942;-78
2022/11/05 03:38:37;;;;;;;;;;;;;;;10.98;76.31;98125.91;7392000;19;19950;-79
2022/11/05 03:41:05;;;;;;;;;;;;;;;11.07;76.05;98125.91;7401964;19;20371;-79
2022/11/05 03:43:33;;;;;;;;;;;;;;;11.12;76.20;98135.00;7400774;19;19947;-79
2022/11/05 03:46:05;;;;;;;;;;;;;;;11.02;76.37;98139.63;7392042;19;19931;-79
2022/11/05 03:48:32;;;;;;;;;;;;;;;11.03;76.33;98137.81;7394247;19;20037;-79
2022/11/05 03:51:04;;;;;;;;;;;;;;;10.90;76.88;98140.94;7392241;19;19919;-79
2022/11/05 03:53:32;;;;;;;;;;;;;;;10.69;77.23;98151.97;7389211;19;19915;-79
2022/11/05 03:56:00;;;;;;;;;;;;;;;10.93;76.88;98145.94;7389242;19;19922;-79
2022/11/05 03:58:26;;;;;;;;;;;;;;;10.89;77.09;98152.53;7389674;19;19947;-78
2022/11/05 04:00:53;;;;;;;;;;;;;;;10.91;77.11;98154.03;7392907;19;19974;-79
2022/11/05 04:03:19;;;;;;;;;;;;;;;10.88;77.27;98157.00;7389294;19;20483;-79
2022/11/05 04:13:22;;;;;;;;;;;;;;;10.92;77.17;98168.06;7393416;19;19958;-78
2022/11/05 04:14:03;;;;;;;;;;;;;;;10.71;78.31;98165.88;7389640;19;20545;-78
2022/11/05 04:24:07;;;;;;;;;;;;;;;10.77;78.21;98174.00;7391967;19;19939;-78
2022/11/05 04:24:47;;;;;;;;;;;;;;;10.57;79.16;98177.09;7389578;19;19922;-78
2022/11/05 04:27:14;;;;;;;;;;;;;;;10.38;79.94;98179.00;7388638;19;19926;-78
2022/11/05 04:32:26;;;;;;;;;;;;;;;10.40;80.13;98186.75;7385798;19;19931;-77
2022/11/05 04:34:52;;;;;;;;;;;;;;;10.43;80.04;98187.28;7386011;19;19926;-77
2022/11/05 04:37:19;;;;;;;;;;;;;;;10.30;80.58;98197.50;7392202;19;19939;-77
2022/11/05 04:39:45;;;;;;;;;;;;;;;10.39;80.39;98193.88;7387488;19;19923;-78
2022/11/05 04:42:12;;;;;;;;;;;;;;;10.44;80.37;98199.53;7388856;19;19915;-78
2022/11/05 04:44:39;;;;;;;;;;;;;;;10.35;80.61;98199.63;7384156;19;20358;-77
2022/11/05 04:47:05;;;;;;;;;;;;;;;10.35;80.59;98195.19;7387262;19;19930;-78
2022/11/05 04:49:32;;;;;;;;;;;;;;;10.41;80.68;98196.38;7388810;19;20350;-77
2022/11/05 04:51:58;;;;;;;;;;;;;;;10.32;80.66;98198.13;7390525;19;19943;-77
2022/11/05 04:54:25;;;;;;;;;;;;;;;10.46;79.98;98192.25;7385914;19;20542;-76
2022/11/05 04:56:52;;;;;;;;;;;;;;;10.45;80.43;98206.47;7388278;19;19955;-77
2022/11/05 04:59:19;;;;;;;;;;;;;;;10.58;80.15;98205.19;7386623;19;19929;-77
2022/11/05 05:01:45;;;;;;;;;;;;;;;10.61;79.77;98212.81;7383118;19;20638;-77
2022/11/05 05:04:13;;;;;;;;;;;;;;;10.50;80.21;98206.81;7381202;19;20266;-77
2022/11/05 05:06:39;;;;;;;;;;;;;;;10.58;79.81;98211.31;7388830;19;19915;-77
2022/11/05 05:09:06;;;;;;;;;;;;;;;10.57;80.07;98206.19;7391363;19;19932;-77
2022/11/05 05:11:33;;;;;;;;;;;;;;;10.56;79.70;98215.94;7390728;19;19911;-77
2022/11/05 05:13:59;;;;;;;;;;;;;;;10.59;79.59;98218.28;7390060;19;20240;-77
2022/11/05 05:16:26;;;;;;;;;;;;;;;10.47;79.98;98215.06;7386781;19;19923;-77
2022/11/05 05:18:53;;;;;;;;;;;;;;;10.54;79.95;98225.84;7386644;19;19930;-77
2022/11/05 05:21:39;;;;;;;;;;;;;;;10.61;79.82;98221.59;7383589;19;20335;-77
2022/11/05 05:24:07;;;;;;;;;;;;;;;10.63;79.64;98229.34;7387113;19;19978;-77
2022/11/05 05:26:35;;;;;;;;;;;;;;;10.71;79.44;98229.38;7388590;19;19919;-77
2022/11/05 05:29:02;;;;;;;;;;;;;;;10.60;79.76;98241.09;7389821;19;19944;-77
2022/11/05 05:31:29;;;;;;;;;;;;;;;10.68;79.66;98237.63;7389374;19;19918;-77
2022/11/05 05:33:55;;;;;;;;;;;;;;;10.73;79.64;98235.34;7387520;19;19915;-77
2022/11/05 05:36:22;;;;;;;;;;;;;;;10.75;79.46;98247.44;7389160;19;19915;-78
2022/11/05 05:38:49;;;;;;;;;;;;;;;10.83;79.30;98246.63;7391655;19;19943;-76
2022/11/05 05:41:16;;;;;;;;;;;;;;;10.74;79.48;98248.44;7386699;19;19931;-77
2022/11/05 05:43:42;;;;;;;;;;;;;;;10.85;79.27;98249.94;7391510;19;19922;-78
2022/11/05 05:46:10;;;;;;;;;;;;;;;10.90;79.34;98255.59;7391704;19;20349;-77
2022/11/05 05:48:37;;;;;;;;;;;;;;;10.83;79.38;98254.56;7391440;19;19911;-78
2022/11/05 05:51:04;;;;;;;;;;;;;;;10.81;79.27;98242.50;7387754;19;19943;-77
2022/11/05 05:53:31;;;;;;;;;;;;;;;10.83;79.08;98253.75;7387384;19;20260;-78
2022/11/05 05:55:58;;;;;;;;;;;;;;;10.84;79.04;98253.56;7390303;19;20652;-77
2022/11/05 05:58:28;;;;;;;;;;;;;;;10.88;78.93;98259.41;7387646;19;20338;-77
2022/11/05 06:00:54;;;;;;;;;;;;;;;10.72;79.25;98257.50;7389002;19;19951;-77
2022/11/05 06:03:21;;;;;;;;;;;;;;;10.32;80.42;98261.59;7386345;19;19942;-77
2022/11/05 06:05:48;;;;;;;;;;;;;;;10.52;80.01;98260.38;7386794;19;20323;-77
2022/11/05 06:08:14;;;;;;;;;;;;;;;10.44;80.19;98263.00;7386670;19;19939;-78
2022/11/05 06:10:41;;;;;;;;;;;;;;;10.50;79.91;98272.94;7384082;19;19911;-78
2022/11/05 06:13:08;;;;;;;;;;;;;;;10.59;79.75;98281.75;7386313;19;19930;-78
2022/11/05 06:15:35;;;;;;;;;;;;;;;10.54;79.98;98279.59;7389706;19;19926;-78
2022/11/05 06:18:01;;;;;;;;;;;;;;;10.52;80.37;98286.00;7390237;19;20033;-78
2022/11/05 06:20:28;;;;;;;;;;;;;;;10.49;80.23;98283.69;7385932;19;19923;-78
2022/11/05 06:22:55;;;;;;;;;;;;;;;10.43;79.98;98285.16;7388593;19;19922;-78
2022/11/05 06:25:22;;;;;;;;;;;;;;;10.38;80.08;98290.09;7386183;19;19939;-78
2022/11/05 06:27:48;;;;;;;;;;;;;;;10.50;79.90;98299.38;7387155;19;19922;-78
2022/11/05 06:30:16;;;;;;;;;;;;;;;10.42;79.82;98302.00;7386987;19;19919;-78
2022/11/05 06:32:43;;;;;;;;;;;;;;;10.33;80.36;98310.88;7387144;19;19930;-78
2022/11/05 06:35:09;;;;;;;;;;;;;;;10.32;80.36;98312.69;7385988;19;20312;-79
2022/11/05 06:37:36;;;;;;;;;;;;;;;10.51;79.81;98308.19;7388166;19;20367;-78
2022/11/05 06:40:03;;;;;;;;;;;;;;;10.54;79.61;98316.63;7380614;19;19948;-78
2022/11/05 06:42:29;;;;;;;;;;;;;;;10.58;79.61;98316.28;7383656;19;19939;-78
2022/11/05 06:44:56;;;;;;;;;;;;;;;10.72;79.33;98313.09;7378658;19;19951;-77
2022/11/05 06:47:22;;;;;;;;;;;;;;;10.69;79.13;98316.88;7384954;19;20279;-78
2022/11/05 06:49:49;;;;;;;;;;;;;;;10.66;79.51;98318.97;7386434;19;19940;-78
2022/11/05 06:52:15;;;;;;;;;;;;;;;10.64;79.22;98321.81;7385750;19;19946;-77
2022/11/05 06:54:42;;;;;;;;;;;;;;;10.50;79.17;98325.00;7383609;19;20239;-78
2022/11/05 06:57:09;;;;;;;;;;;;;;;10.50;79.48;98335.59;7383187;19;19957;-78
2022/11/05 06:59:37;;;;;;;;;;;;;;;10.55;79.10;98343.88;7381262;19;19922;-77
2022/11/05 07:02:04;;;;;;;;;;;;;;;10.63;78.82;98345.75;7386174;19;20338;-78
2022/11/05 07:04:31;;;;;;;;;;;;;;;10.68;78.97;98348.75;7384278;19;19911;-78
2022/11/05 07:06:58;;;;;;;;;;;;;;;10.75;78.87;98352.44;7384844;19;19919;-77
2022/11/05 07:09:25;;;;;;;;;;;;;;;10.61;78.93;98359.16;7382656;19;19922;-78
2022/11/05 07:11:51;;;;;;;;;;;;;;;10.57;78.91;98365.72;7383788;19;19927;-78
2022/11/05 07:14:18;;;;;;;;;;;;;;;10.62;79.00;98371.38;7380043;19;19944;-77
2022/11/05 07:16:45;;;;;;;;;;;;;;;10.48;79.17;98369.31;7383659;19;19960;-77
2022/11/05 07:19:11;;;;;;;;;;;;;;;10.64;79.00;98379.19;7385758;19;19922;-78
2022/11/05 07:21:38;;;;;;;;;;;;;;;10.72;79.00;98387.16;7390585;19;19945;-77
2022/11/05 07:24:05;;;;;;;;;;;;;;;10.74;79.22;98385.16;7390184;19;19907;-78
2022/11/05 07:26:31;;;;;;;;;;;;;;;10.83;79.30;98392.19;7391439;19;19911;-78
2022/11/05 07:29:00;;;;;;;;;;;;;;;10.88;79.33;98392.53;7396966;19;19926;-75
2022/11/05 07:31:27;;;;;;;;;;;;;;;10.89;79.50;98404.78;7389836;19;19922;-77
2022/11/05 07:33:53;;;;;;;;;;;;;;;10.99;79.62;98407.31;7391469;19;19956;-77
2022/11/05 07:36:20;;;;;;;;;;;;;;;11.01;79.78;98409.81;7393244;19;19927;-77
2022/11/05 07:38:46;;;;;;;;;;;;;;;11.09;79.56;98404.56;7393117;19;20597;-77
2022/11/05 07:41:13;;;;;;;;;;;;;;;11.10;79.39;98400.91;7389612;19;20481;-77
2022/11/05 07:43:40;;;;;;;;;;;;;;;11.11;79.31;98402.56;7393331;19;19911;-77
2022/11/05 07:46:06;;;;;;;;;;;;;;;11.09;79.01;98409.88;7399915;19;19914;-74
2022/11/05 07:48:39;;;;;;;;;;;;;;;11.14;79.06;98412.88;7419236;19;19947;-76
2022/11/05 07:51:05;;;;;;;;;;;;;;;10.82;78.88;98419.66;7414463;19;19910;-80
2022/11/05 07:53:32;;;;;;;;;;;;;;;10.90;78.79;98419.69;7404239;19;19919;-80
2022/11/05 07:55:58;;;;;;;;;;;;;;;10.83;79.20;98428.41;7396158;19;19919;-78
2022/11/05 07:58:37;;;;;;;;;;;;;;;10.72;79.36;98424.22;7398511;19;19923;-79
2022/11/05 08:01:03;;;;;;;;;;;;;;;10.56;79.96;98424.94;7398900;19;21147;-79
2022/11/05 08:03:30;;;;;;;;;;;;;;;10.44;80.73;98440.19;7393873;19;19926;-78
2022/11/05 08:05:57;;;;;;;;;;;;;;;10.36;80.44;98434.03;7395576;19;19919;-78
2022/11/05 08:08:24;;;;;;;;;;;;;;;10.32;80.93;98430.84;7396523;19;19915;-78
2022/11/05 08:10:50;;;;;;;;;;;;;;;10.28;80.91;98438.25;7394936;19;19918;-76
2022/11/05 08:13:17;;;;;;;;;;;;;;;10.57;80.47;98441.63;7392848;19;19921;-79
2022/11/05 08:15:44;;;;;;;;;;;;;;;10.59;80.30;98435.19;7397321;19;19933;-80
2022/11/05 08:18:20;;;;;;;;;;;;;;;10.55;80.24;98444.41;7395927;19;19921;-78
2022/11/05 08:20:46;;;;;;;;;;;;;;;10.38;80.25;98453.22;7391417;19;20280;-79
2022/11/05 08:23:13;;;;;;;;;;;;;;;10.41;80.43;98452.91;7392293;19;20011;-80
2022/11/05 08:25:40;;;;;;;;;;;;;;;10.13;80.76;98452.94;7393183;19;19935;-79
2022/11/05 08:28:09;;;;;;;;;;;;;;;10.21;80.58;98463.59;7394118;19;20839;-80
2022/11/05 08:30:35;;;;;;;;;;;;;;;10.26;80.21;98461.34;7393079;19;19914;-79
2022/11/05 08:33:07;;;;;;;;;;;;;;;10.30;80.04;98470.66;7394231;19;20321;-79
2022/11/05 08:35:35;;;;;;;;;;;;;;;10.22;80.39;98467.09;7395225;19;19911;-78
2022/11/05 08:38:02;;;;;;;;;;;;;;;10.11;80.34;98476.09;7391501;19;19915;-79
2022/11/05 08:40:32;;;;;;;;;;;;;;;9.87;80.82;98474.84;7390359;19;19925;-78
2022/11/05 08:43:04;;;;;;;;;;;;;;;10.05;80.38;98474.03;7391078;19;20432;-79
2022/11/05 08:45:33;;;;;;;;;;;;;;;10.05;80.49;98479.31;7394073;19;19929;-78
2022/11/05 08:48:01;;;;;;;;;;;;;;;9.90;80.69;98486.94;7395534;19;19935;-78
2022/11/05 08:50:28;;;;;;;;;;;;;;;9.95;80.16;98489.94;7392582;19;19923;-79
2022/11/05 08:52:55;;;;;;;;;;;;;;;9.85;80.40;98489.19;7394020;19;19944;-81
2022/11/05 08:55:22;;;;;;;;;;;;;;;9.96;80.37;98494.25;7393040;19;19922;-79
2022/11/05 08:57:56;;;;;;;;;;;;;;;9.75;80.40;98478.66;7395241;19;19929;-79
2022/11/05 09:00:24;;;;;;;;;;;;;;;9.62;80.68;98488.75;7392205;19;19925;-80
2022/11/05 09:02:51;;;;;;;;;;;;;;;9.56;80.77;98495.47;7395487;19;19923;-78
2022/11/05 09:05:22;;;;;;;;;;;;;;;9.68;80.67;98498.72;7388135;19;19914;-79
2022/11/05 09:07:50;;;;;;;;;;;;;;;9.67;80.66;98497.91;7392800;19;19990;-79
2022/11/05 09:10:25;;;;;;;;;;;;;;;9.50;80.88;98500.47;7395104;19;19939;-78
2022/11/05 09:12:52;;;;;;;;;;;;;;;9.62;80.47;98505.44;7388887;19;20276;-78
2022/11/05 09:15:19;;;;;;;;;;;;;;;9.45;80.88;98509.69;7387316;19;19935;-78
2022/11/05 09:17:45;;;;;;;;;;;;;;;9.42;81.15;98509.13;7394235;19;19943;-76
2022/11/05 09:20:12;;;;;;;;;;;;;;;9.54;80.82;98515.06;7392552;19;20545;-79
2022/11/05 09:22:39;;;;;;;;;;;;;;;9.70;80.67;98517.06;7399976;19;19923;-77
2022/11/05 09:25:09;;;;;;;;;;;;;;;9.37;81.21;98516.63;7393123;19;19930;-80
2022/11/05 09:27:35;;;;;;;;;;;;;;;9.38;81.29;98520.97;7392445;19;19926;-77
2022/11/05 09:30:02;;;;;;;;;;;;;;;9.48;81.02;98518.25;7387758;19;19914;-78
2022/11/05 09:32:29;;;;;;;;;;;;;;;9.54;81.23;98525.63;7390965;19;19951;-79
2022/11/05 09:34:59;;;;;;;;;;;;;;;9.57;80.82;98522.69;7391170;19;19915;-78
2022/11/05 09:37:26;;;;;;;;;;;;;;;9.53;80.87;98523.94;7390866;19;19915;-78
2022/11/05 09:39:53;;;;;;;;;;;;;;;9.74;80.82;98521.06;7394472;19;19934;-78
2022/11/05 09:42:20;;;;;;;;;;;;;;;9.74;80.97;98521.94;7386390;19;19935;-78
2022/11/05 09:44:48;;;;;;;;;;;;;;;10.10;80.29;98530.75;7384601;19;19931;-78
2022/11/05 09:47:19;;;;;;;;;;;;;;;9.97;80.00;98521.50;7386590;19;19951;-78
2022/11/05 09:49:49;;;;;;;;;;;;;;;10.17;79.70;98530.16;7387558;19;19923;-78
2022/11/05 09:52:20;;;;;;;;;;;;;;;10.37;79.33;98534.34;7388582;19;19915;-78
2022/11/05 09:54:49;;;;;;;;;;;;;;;10.25;79.16;98530.25;7387400;19;19918;-77
2022/11/05 09:57:16;;;;;;;;;;;;;;;10.08;79.60;98537.16;7387430;19;19922;-78
2022/11/05 09:59:44;;;;;;;;;;;;;;;10.08;79.46;98538.00;7384814;19;20607;-78
2022/11/05 10:02:18;;;;;;;;;;;;;;;10.06;79.46;98537.31;7382761;19;19907;-78
2022/11/05 10:04:45;;;;;;;;;;;;;;;9.98;79.65;98541.66;7387947;19;20035;-77
2022/11/05 10:07:13;;;;;;;;;;;;;;;10.14;79.66;98549.81;7390669;19;19923;-78
2022/11/05 10:09:44;;;;;;;;;;;;;;;10.04;79.65;98551.66;7392312;19;19923;-78
2022/11/05 10:12:11;;;;;;;;;;;;;;;9.82;79.99;98555.50;7390275;19;19918;-78
2022/11/05 10:14:47;;;;;;;;;;;;;;;9.99;79.68;98561.84;7386613;19;20343;-78
2022/11/05 10:17:15;;;;;;;;;;;;;;;10.09;78.99;98560.81;7385233;19;20418;-79
2022/11/05 10:19:43;;;;;;;;;;;;;;;10.37;78.93;98568.72;7385914;19;19943;-78
2022/11/05 10:22:15;;;;;;;;;;;;;;;10.36;79.02;98569.72;7387815;19;19936;-79
2022/11/05 10:24:43;;;;;;;;;;;;;;;10.24;79.30;98570.88;7389232;19;19922;-79
2022/11/05 10:27:22;;;;;;;;;;;;;;;10.17;79.31;98570.66;7392191;19;19940;-79
2022/11/05 10:29:49;;;;;;;;;;;;;;;10.41;78.70;98571.94;7391400;19;20250;-78
2022/11/05 10:32:25;;;;;;;;;;;;;;;10.33;78.68;98580.59;7387313;19;19932;-78
2022/11/05 10:34:51;;;;;;;;;;;;;;;10.23;78.16;98582.44;7383994;19;19922;-79
2022/11/05 10:37:18;;;;;;;;;;;;;;;10.25;78.53;98577.84;7389032;19;20288;-75
2022/11/05 10:39:44;;;;;;;;;;;;;;;10.31;78.49;98585.19;7394683;19;19922;-78
2022/11/05 10:42:14;;;;;;;;;;;;;;;10.32;78.46;98584.22;7391243;19;19927;-78
2022/11/05 10:44:46;;;;;;;;;;;;;;;10.53;77.94;98584.78;7386327;19;19923;-79
2022/11/05 10:47:31;;;;;;;;;;;;;;;10.51;78.38;98583.28;7385919;19;19955;-78
2022/11/05 10:49:59;;;;;;;;;;;;;;;10.69;77.63;98586.75;7389322;19;19915;-78
2022/11/05 10:52:33;;;;;;;;;;;;;;;10.55;78.11;98593.38;7384990;19;19918;-78
2022/11/05 10:55:01;;;;;;;;;;;;;;;10.55;77.97;98588.09;7382289;19;19915;-77
2022/11/05 10:57:27;;;;;;;;;;;;;;;10.48;78.76;98584.41;7390621;19;19929;-78
2022/11/05 11:00:17;;;;;;;;;;;;;;;10.40;79.14;98589.63;7394377;19;20343;-77
2022/11/05 11:02:47;;;;;;;;;;;;;;;10.40;79.35;98594.03;7391136;19;19930;-77
2022/11/05 11:05:34;;;;;;;;;;;;;;;10.32;79.35;98595.66;7390827;19;20343;-78
2022/11/05 11:08:03;;;;;;;;;;;;;;;10.32;79.03;98593.00;7393516;19;20355;-79
2022/11/05 11:10:30;;;;;;;;;;;;;;;10.44;79.35;98587.50;7394565;19;19968;-76
2022/11/05 11:12:57;;;;;;;;;;;;;;;10.43;79.20;98599.06;7397747;19;20258;-79
2022/11/05 11:15:26;;;;;;;;;;;;;;;10.13;79.63;98593.06;7400141;19;19911;-79
2022/11/05 11:17:53;;;;;;;;;;;;;;;10.14;79.72;98596.53;7395899;19;20667;-80
2022/11/05 11:20:22;;;;;;;;;;;;;;;10.30;79.61;98594.13;7391287;19;19951;-78
2022/11/05 11:23:10;;;;;;;;;;;;;;;10.28;79.90;98602.19;7394332;19;19947;-78
2022/11/05 11:25:49;;;;;;;;;;;;;;;10.40;79.61;98599.34;7392424;19;19951;-78
2022/11/05 11:28:20;;;;;;;;;;;;;;;10.57;79.70;98603.81;7389416;19;19926;-79
2022/11/05 11:30:47;;;;;;;;;;;;;;;10.70;79.44;98600.81;7389648;19;20387;-79
2022/11/05 11:33:14;;;;;;;;;;;;;;;10.63;78.62;98600.56;7387922;19;19919;-79
2022/11/05 11:35:40;;;;;;;;;;;;;;;10.33;78.55;98599.94;7391094;19;19962;-79
2022/11/05 11:38:10;;;;;;;;;;;;;;;10.49;78.00;98604.56;7394386;19;19911;-80
2022/11/05 11:40:36;;;;;;;;;;;;;;;10.54;77.96;98606.78;7391799;19;19918;-80
2022/11/05 11:43:05;;;;;;;;;;;;;;;10.47;78.16;98603.88;7389822;19;19926;-79
2022/11/05 11:45:33;;;;;;;;;;;;;;;10.49;77.52;98611.69;7391794;19;19919;-81
2022/11/05 11:48:00;;;;;;;;;;;;;;;10.61;77.70;98607.00;7394132;19;19919;-79
2022/11/05 11:50:29;;;;;;;;;;;;;;;10.64;78.16;98614.66;7401035;19;22207;-79
2022/11/05 11:53:14;;;;;;;;;;;;;;;10.86;77.53;98611.53;7397044;19;19919;-78
2022/11/05 11:55:46;;;;;;;;;;;;;;;10.94;77.38;98613.44;7395525;19;19951;-78
2022/11/05 11:58:13;;;;;;;;;;;;;;;11.19;76.24;98615.31;7385568;19;20339;-78
2022/11/05 12:00:40;;;;;;;;;;;;;;;11.24;76.69;98620.13;7390434;19;20046;-77
2022/11/05 12:03:15;;;;;;;;;;;;;;;11.18;76.61;98604.84;7390384;19;19959;-78
2022/11/05 12:05:54;;;;;;;;;;;;;;;11.27;76.24;98608.38;7392762;19;19922;-78
2022/11/05 12:08:39;;;;;;;;;;;;;;;11.26;76.27;98607.56;7396575;19;19919;-78
2022/11/05 12:11:11;;;;;;;;;;;;;;;11.20;76.30;98609.00;7395470;19;20228;-76
2022/11/05 12:13:40;;;;;;;;;;;;;;;10.85;76.39;98601.09;7392638;19;20283;-78
2022/11/05 12:16:25;;;;;;;;;;;;;;;11.01;76.04;98597.78;7394791;19;20374;-77
2022/11/05 12:18:56;;;;;;;;;;;;;;;10.90;76.03;98598.81;7395829;19;20343;-78
2022/11/05 12:21:43;;;;;;;;;;;;;;;11.03;75.90;98593.16;7403529;19;20712;-78
2022/11/05 12:24:37;;;;;;;;;;;;;;;11.17;75.83;98593.44;7415412;19;19922;-78
2022/11/05 12:27:10;;;;;;;;;;;;;;;11.43;75.56;98589.97;7418791;19;19934;-78
2022/11/05 12:29:49;;;;;;;;;;;;;;;11.45;74.79;98597.75;7402914;19;19922;-78
2022/11/05 12:32:35;;;;;;;;;;;;;;;11.49;73.11;98591.19;7391534;19;19938;-78
2022/11/05 12:35:01;;;;;;;;;;;;;;;11.60;73.92;98582.94;7388705;19;19921;-78
2022/11/05 12:37:44;;;;;;;;;;;;;;;11.52;74.13;98581.09;7392951;19;19956;-78
2022/11/05 12:40:30;;;;;;;;;;;;;;;11.61;73.64;98589.91;7390677;19;20434;-78
2022/11/05 12:42:56;;;;;;;;;;;;;;;11.55;73.92;98579.94;7394950;19;19926;-77
2022/11/05 12:45:32;;;;;;;;;;;;;;;11.58;73.88;98587.56;7392858;19;20549;-78
2022/11/05 12:48:07;;;;;;;;;;;;;;;11.59;73.83;98586.59;7392152;19;20266;-78
2022/11/05 12:50:37;;;;;;;;;;;;;;;11.76;73.80;98590.97;7386281;19;19923;-79
2022/11/05 12:53:04;;;;;;;;;;;;;;;11.77;72.78;98592.66;7388978;19;19915;-79
2022/11/05 12:55:32;;;;;;;;;;;;;;;11.63;72.47;98595.88;7393662;19;19936;-77
2022/11/05 12:58:07;;;;;;;;;;;;;;;11.58;72.57;98596.34;7387325;19;19934;-78
2022/11/05 13:00:33;;;;;;;;;;;;;;;11.71;72.44;98598.56;7390204;19;20030;-78
2022/11/05 13:03:00;;;;;;;;;;;;;;;11.60;72.13;98602.31;7388417;19;19922;-80
2022/11/05 13:05:29;;;;;;;;;;;;;;;11.41;72.04;98603.38;7387306;19;20342;-77
2022/11/05 13:08:15;;;;;;;;;;;;;;;11.59;72.47;98599.84;7389851;19;19922;-79
2022/11/05 13:10:48;;;;;;;;;;;;;;;11.71;72.37;98600.41;7391977;19;19926;-78
2022/11/05 13:13:22;;;;;;;;;;;;;;;11.70;71.79;98601.41;7389119;19;19935;-78
2022/11/05 13:16:09;;;;;;;;;;;;;;;11.81;72.61;98599.28;7388270;19;19922;-79
2022/11/05 13:18:44;;;;;;;;;;;;;;;11.71;71.54;98603.06;7386889;19;20047;-78
2022/11/05 13:21:10;;;;;;;;;;;;;;;11.79;71.90;98595.97;7382853;19;19914;-79
2022/11/05 13:23:42;;;;;;;;;;;;;;;11.97;72.17;98597.75;7390459;19;20258;-79
2022/11/05 13:26:10;;;;;;;;;;;;;;;11.88;71.38;98604.03;7388195;19;20347;-78
2022/11/05 13:28:51;;;;;;;;;;;;;;;11.67;71.65;98602.53;7388772;19;19922;-78
2022/11/05 13:31:19;;;;;;;;;;;;;;;11.62;71.74;98600.34;7388619;19;19927;-78
2022/11/05 13:33:46;;;;;;;;;;;;;;;11.49;72.39;98607.91;7389249;19;19947;-79
2022/11/05 13:39:22;;;;;;;;;;;;;;;11.83;72.39;98604.44;7390260;19;20335;-78
2022/11/05 13:42:07;;;;;;;;;;;;;;;11.52;71.18;98610.22;7388508;19;19918;-80
2022/11/05 13:44:56;;;;;;;;;;;;;;;11.63;71.73;98612.59;7387573;19;19943;-79